sensor_id;sensor_type;location;lat;lon;timestamp;temperature;humidity
10249;DHT22;5169;50.560;9.714;2023-08-21T00:01:02;21.80;99.90
10249;DHT22;5169;50.560;9.714;2023-08-21T00:03:28;21.80;99.90
10249;DHT22;5169;50.560;9.714;2023-08-21T00:05:57;21.80;99.90
10249;DHT22;5169;50.560;9.714;2023-08-21T00:08:30;21.70;99.90
10249;DHT22;5169;50.560;9.714;2023-08-21T00:10:58;21.60;99.90
10249;DHT22;5169;50.560;9.714;2023-08-21T00:13:41;21.60;99.90
10249;DHT22;5169;50.560;9.714;2023-08-21T00:16:27;21.60;99.90
10249;DHT22;5169;50.560;9.714;2023-08-21T00:18:54;21.60;99.90
10249;DHT22;5169;50.560;9.714;2023-08-21T00:21:19;21.60;99.90
10249;DHT22;5169;50.560;9.714;2023-08-21T00:23:46;21.60;99.90
10249;DHT22;5169;50.560;9.714;2023-08-21T00:26:14;21.60;99.90
10249;DHT22;5169;50.560;9.714;2023-08-21T00:28:40;21.70;99.90
10249;DHT22;5169;50.560;9.714;2023-08-21T00:31:06;21.70;99.90
10249;DHT22;5169;50.560;9.714;2023-08-21T00:33:34;21.80;99.90
10249;DHT22;5169;50.560;9.714;2023-08-21T00:36:02;21.70;99.90
10249;DHT22;5169;50.560;9.714;2023-08-21T00:38:28;21.70;99.90
10249;DHT22;5169;50.560;9.714;2023-08-21T00:40:53;21.70;99.90
10249;DHT22;5169;50.560;9.714;2023-08-21T00:43:19;21.50;99.90
10249;DHT22;5169;50.560;9.714;2023-08-21T00:45:49;21.50;99.90
10249;DHT22;5169;50.560;9.714;2023-08-21T00:48:15;21.50;99.90
10249;DHT22;5169;50.560;9.714;2023-08-21T00:50:43;21.50;99.90
10249;DHT22;5169;50.560;9.714;2023-08-21T00:53:10;21.70;99.90
10249;DHT22;5169;50.560;9.714;2023-08-21T00:55:35;21.70;99.90
10249;DHT22;5169;50.560;9.714;2023-08-21T00:58:04;21.60;99.90
10249;DHT22;5169;50.560;9.714;2023-08-21T01:00:34;21.60;99.90
10249;DHT22;5169;50.560;9.714;2023-08-21T01:03:00;21.60;99.90
10249;DHT22;5169;50.560;9.714;2023-08-21T01:05:26;21.60;99.90
10249;DHT22;5169;50.560;9.714;2023-08-21T01:10:50;21.70;99.90
10249;DHT22;5169;50.560;9.714;2023-08-21T01:13:30;21.60;99.90
10249;DHT22;5169;50.560;9.714;2023-08-21T01:15:57;21.50;99.90
10249;DHT22;5169;50.560;9.714;2023-08-21T01:18:26;21.30;99.90
10249;DHT22;5169;50.560;9.714;2023-08-21T01:20:53;21.30;99.90
10249;DHT22;5169;50.560;9.714;2023-08-21T01:23:36;21.30;99.90
10249;DHT22;5169;50.560;9.714;2023-08-21T01:26:02;21.30;99.90
10249;DHT22;5169;50.560;9.714;2023-08-21T01:28:28;21.10;99.90
10249;DHT22;5169;50.560;9.714;2023-08-21T01:31:11;21.10;99.90
10249;DHT22;5169;50.560;9.714;2023-08-21T01:33:45;21.20;99.90
10249;DHT22;5169;50.560;9.714;2023-08-21T01:36:18;21.40;99.90
10249;DHT22;5169;50.560;9.714;2023-08-21T01:38:43;21.40;99.90
10249;DHT22;5169;50.560;9.714;2023-08-21T01:41:09;21.50;99.90
10249;DHT22;5169;50.560;9.714;2023-08-21T01:43:35;21.50;99.90
10249;DHT22;5169;50.560;9.714;2023-08-21T01:46:01;21.40;99.90
10249;DHT22;5169;50.560;9.714;2023-08-21T01:48:29;21.40;99.90
10249;DHT22;5169;50.560;9.714;2023-08-21T01:51:01;21.20;99.90
10249;DHT22;5169;50.560;9.714;2023-08-21T01:53:29;21.10;99.90
10249;DHT22;5169;50.560;9.714;2023-08-21T01:55:55;21.00;99.90
10249;DHT22;5169;50.560;9.714;2023-08-21T01:58:20;20.90;99.90
10249;DHT22;5169;50.560;9.714;2023-08-21T02:00:48;20.90;99.90
10249;DHT22;5169;50.560;9.714;2023-08-21T02:03:14;20.70;99.90
10249;DHT22;5169;50.560;9.714;2023-08-21T02:05:42;20.80;99.90
10249;DHT22;5169;50.560;9.714;2023-08-21T02:08:12;20.90;99.90
10249;DHT22;5169;50.560;9.714;2023-08-21T02:10:51;20.70;99.90
10249;DHT22;5169;50.560;9.714;2023-08-21T02:13:18;20.70;99.90
10249;DHT22;5169;50.560;9.714;2023-08-21T02:15:46;20.60;99.90
10249;DHT22;5169;50.560;9.714;2023-08-21T02:18:12;20.60;99.90
10249;DHT22;5169;50.560;9.714;2023-08-21T02:20:37;20.70;99.90
10249;DHT22;5169;50.560;9.714;2023-08-21T02:23:05;20.70;99.90
10249;DHT22;5169;50.560;9.714;2023-08-21T02:25:31;20.70;99.90
10249;DHT22;5169;50.560;9.714;2023-08-21T02:27:57;20.70;99.90
10249;DHT22;5169;50.560;9.714;2023-08-21T02:30:23;20.80;99.90
10249;DHT22;5169;50.560;9.714;2023-08-21T02:32:52;20.90;99.90
10249;DHT22;5169;50.560;9.714;2023-08-21T02:35:18;20.90;99.90
10249;DHT22;5169;50.560;9.714;2023-08-21T02:37:46;20.90;99.90
10249;DHT22;5169;50.560;9.714;2023-08-21T02:40:16;20.90;99.90
10249;DHT22;5169;50.560;9.714;2023-08-21T02:42:41;20.80;99.90
10249;DHT22;5169;50.560;9.714;2023-08-21T02:45:07;20.90;99.90
10249;DHT22;5169;50.560;9.714;2023-08-21T02:47:40;20.90;99.90
10249;DHT22;5169;50.560;9.714;2023-08-21T02:50:07;20.90;99.90
10249;DHT22;5169;50.560;9.714;2023-08-21T02:52:36;20.80;99.90
10249;DHT22;5169;50.560;9.714;2023-08-21T02:55:03;20.60;99.90
10249;DHT22;5169;50.560;9.714;2023-08-21T02:57:28;20.60;99.90
10249;DHT22;5169;50.560;9.714;2023-08-21T02:59:55;20.70;99.90
10249;DHT22;5169;50.560;9.714;2023-08-21T03:02:20;20.70;99.90
10249;DHT22;5169;50.560;9.714;2023-08-21T03:04:46;20.50;99.90
10249;DHT22;5169;50.560;9.714;2023-08-21T03:07:12;20.40;99.90
10249;DHT22;5169;50.560;9.714;2023-08-21T03:09:39;20.30;99.90
10249;DHT22;5169;50.560;9.714;2023-08-21T03:12:05;20.40;99.90
10249;DHT22;5169;50.560;9.714;2023-08-21T03:14:31;20.30;99.90
10249;DHT22;5169;50.560;9.714;2023-08-21T03:16:56;20.10;99.90
10249;DHT22;5169;50.560;9.714;2023-08-21T03:19:22;20.00;99.90
10249;DHT22;5169;50.560;9.714;2023-08-21T03:21:48;20.00;99.90
10249;DHT22;5169;50.560;9.714;2023-08-21T03:24:16;20.00;99.90
10249;DHT22;5169;50.560;9.714;2023-08-21T03:26:47;19.90;99.90
10249;DHT22;5169;50.560;9.714;2023-08-21T03:29:15;20.00;99.90
10249;DHT22;5169;50.560;9.714;2023-08-21T03:31:43;19.80;99.90
10249;DHT22;5169;50.560;9.714;2023-08-21T03:34:08;20.10;99.90
10249;DHT22;5169;50.560;9.714;2023-08-21T03:36:34;20.10;99.90
10249;DHT22;5169;50.560;9.714;2023-08-21T03:39:04;20.20;99.90
10249;DHT22;5169;50.560;9.714;2023-08-21T03:41:31;20.30;99.90
10249;DHT22;5169;50.560;9.714;2023-08-21T03:43:59;20.40;99.90
10249;DHT22;5169;50.560;9.714;2023-08-21T03:46:24;20.50;99.90
10249;DHT22;5169;50.560;9.714;2023-08-21T03:48:51;20.50;99.90
10249;DHT22;5169;50.560;9.714;2023-08-21T03:51:16;20.50;99.90
10249;DHT22;5169;50.560;9.714;2023-08-21T03:53:42;20.40;99.90
10249;DHT22;5169;50.560;9.714;2023-08-21T03:56:08;20.30;99.90
10249;DHT22;5169;50.560;9.714;2023-08-21T03:58:33;20.30;99.90
10249;DHT22;5169;50.560;9.714;2023-08-21T04:00:59;20.10;99.90
10249;DHT22;5169;50.560;9.714;2023-08-21T04:03:27;20.20;99.90
10249;DHT22;5169;50.560;9.714;2023-08-21T04:05:53;20.00;99.90
10249;DHT22;5169;50.560;9.714;2023-08-21T04:08:19;20.10;99.90
10249;DHT22;5169;50.560;9.714;2023-08-21T04:10:47;20.20;99.90
10249;DHT22;5169;50.560;9.714;2023-08-21T04:13:12;20.20;99.90
10249;DHT22;5169;50.560;9.714;2023-08-21T04:15:38;20.00;99.90
10249;DHT22;5169;50.560;9.714;2023-08-21T04:18:04;19.90;99.90
10249;DHT22;5169;50.560;9.714;2023-08-21T04:20:30;19.80;99.90
10249;DHT22;5169;50.560;9.714;2023-08-21T04:22:55;19.80;99.90
10249;DHT22;5169;50.560;9.714;2023-08-21T04:25:23;19.90;99.90
10249;DHT22;5169;50.560;9.714;2023-08-21T04:27:49;20.00;99.90
10249;DHT22;5169;50.560;9.714;2023-08-21T04:30:15;20.10;99.90
10249;DHT22;5169;50.560;9.714;2023-08-21T04:32:42;20.20;99.90
10249;DHT22;5169;50.560;9.714;2023-08-21T04:35:08;20.20;99.90
10249;DHT22;5169;50.560;9.714;2023-08-21T04:37:34;20.30;99.90
10249;DHT22;5169;50.560;9.714;2023-08-21T04:40:00;20.30;99.90
10249;DHT22;5169;50.560;9.714;2023-08-21T04:42:25;20.20;99.90
10249;DHT22;5169;50.560;9.714;2023-08-21T04:44:51;20.00;99.90
10249;DHT22;5169;50.560;9.714;2023-08-21T04:47:22;20.00;99.90
10249;DHT22;5169;50.560;9.714;2023-08-21T04:49:51;20.10;99.90
10249;DHT22;5169;50.560;9.714;2023-08-21T04:52:19;20.10;99.90
10249;DHT22;5169;50.560;9.714;2023-08-21T04:54:47;20.20;99.90
10249;DHT22;5169;50.560;9.714;2023-08-21T04:57:15;20.20;99.90
10249;DHT22;5169;50.560;9.714;2023-08-21T04:59:41;20.30;99.90
10249;DHT22;5169;50.560;9.714;2023-08-21T05:02:07;20.20;99.90
10249;DHT22;5169;50.560;9.714;2023-08-21T05:04:35;20.00;99.90
10249;DHT22;5169;50.560;9.714;2023-08-21T05:07:00;20.00;99.90
10249;DHT22;5169;50.560;9.714;2023-08-21T05:09:26;20.00;99.90
10249;DHT22;5169;50.560;9.714;2023-08-21T05:11:52;20.10;99.90
10249;DHT22;5169;50.560;9.714;2023-08-21T05:14:19;20.10;99.90
10249;DHT22;5169;50.560;9.714;2023-08-21T05:16:50;20.00;99.90
10249;DHT22;5169;50.560;9.714;2023-08-21T05:19:16;20.00;99.90
10249;DHT22;5169;50.560;9.714;2023-08-21T05:21:43;20.10;99.90
10249;DHT22;5169;50.560;9.714;2023-08-21T05:24:08;20.20;99.90
10249;DHT22;5169;50.560;9.714;2023-08-21T05:26:38;20.30;99.90
10249;DHT22;5169;50.560;9.714;2023-08-21T05:29:04;20.70;99.90
10249;DHT22;5169;50.560;9.714;2023-08-21T05:31:29;21.60;99.90
10249;DHT22;5169;50.560;9.714;2023-08-21T05:33:55;22.20;99.90
10249;DHT22;5169;50.560;9.714;2023-08-21T05:36:21;23.20;99.90
10249;DHT22;5169;50.560;9.714;2023-08-21T05:38:46;23.80;99.90
10249;DHT22;5169;50.560;9.714;2023-08-21T05:41:15;24.50;99.90
10249;DHT22;5169;50.560;9.714;2023-08-21T05:43:43;25.00;99.90
10249;DHT22;5169;50.560;9.714;2023-08-21T05:46:11;24.90;99.90
10249;DHT22;5169;50.560;9.714;2023-08-21T05:48:36;25.10;99.90
10249;DHT22;5169;50.560;9.714;2023-08-21T05:51:04;25.50;99.90
10249;DHT22;5169;50.560;9.714;2023-08-21T05:53:30;26.00;99.90
10249;DHT22;5169;50.560;9.714;2023-08-21T05:55:56;25.40;99.90
10249;DHT22;5169;50.560;9.714;2023-08-21T05:58:21;24.60;99.90
10249;DHT22;5169;50.560;9.714;2023-08-21T06:00:48;24.50;99.90
10249;DHT22;5169;50.560;9.714;2023-08-21T06:03:16;24.50;99.90
10249;DHT22;5169;50.560;9.714;2023-08-21T06:05:41;24.20;99.90
10249;DHT22;5169;50.560;9.714;2023-08-21T06:08:09;23.70;99.90
10249;DHT22;5169;50.560;9.714;2023-08-21T06:10:37;23.70;99.90
10249;DHT22;5169;50.560;9.714;2023-08-21T06:13:02;23.40;99.90
10249;DHT22;5169;50.560;9.714;2023-08-21T06:15:28;23.50;99.90
10249;DHT22;5169;50.560;9.714;2023-08-21T06:17:55;23.50;99.90
10249;DHT22;5169;50.560;9.714;2023-08-21T06:20:21;23.50;99.90
10249;DHT22;5169;50.560;9.714;2023-08-21T06:22:47;23.70;99.90
10249;DHT22;5169;50.560;9.714;2023-08-21T06:25:12;23.40;99.90
10249;DHT22;5169;50.560;9.714;2023-08-21T06:27:39;23.00;99.90
10249;DHT22;5169;50.560;9.714;2023-08-21T06:30:05;23.10;99.90
10249;DHT22;5169;50.560;9.714;2023-08-21T06:32:31;23.00;99.90
10249;DHT22;5169;50.560;9.714;2023-08-21T06:34:56;22.90;99.90
10249;DHT22;5169;50.560;9.714;2023-08-21T06:37:22;22.80;99.90
10249;DHT22;5169;50.560;9.714;2023-08-21T06:39:48;23.10;99.90
10249;DHT22;5169;50.560;9.714;2023-08-21T06:42:13;23.40;99.90
10249;DHT22;5169;50.560;9.714;2023-08-21T06:44:39;23.00;99.90
10249;DHT22;5169;50.560;9.714;2023-08-21T06:47:05;23.10;99.90
10249;DHT22;5169;50.560;9.714;2023-08-21T06:49:30;23.30;99.90
10249;DHT22;5169;50.560;9.714;2023-08-21T06:51:58;23.20;99.90
10249;DHT22;5169;50.560;9.714;2023-08-21T06:54:24;23.40;99.90
10249;DHT22;5169;50.560;9.714;2023-08-21T06:56:50;23.40;99.90
10249;DHT22;5169;50.560;9.714;2023-08-21T06:59:15;23.60;99.90
10249;DHT22;5169;50.560;9.714;2023-08-21T07:01:41;23.60;99.90
10249;DHT22;5169;50.560;9.714;2023-08-21T07:04:06;23.60;99.90
10249;DHT22;5169;50.560;9.714;2023-08-21T07:06:32;23.70;99.90
10249;DHT22;5169;50.560;9.714;2023-08-21T07:09:00;24.00;99.90
10249;DHT22;5169;50.560;9.714;2023-08-21T07:11:28;24.00;99.90
10249;DHT22;5169;50.560;9.714;2023-08-21T07:13:54;23.90;99.90
10249;DHT22;5169;50.560;9.714;2023-08-21T07:16:20;23.90;99.90
10249;DHT22;5169;50.560;9.714;2023-08-21T07:18:46;23.80;99.90
10249;DHT22;5169;50.560;9.714;2023-08-21T07:21:13;23.90;99.90
10249;DHT22;5169;50.560;9.714;2023-08-21T07:23:39;24.10;99.90
10249;DHT22;5169;50.560;9.714;2023-08-21T07:26:04;24.30;99.90
10249;DHT22;5169;50.560;9.714;2023-08-21T07:28:33;24.30;99.90
10249;DHT22;5169;50.560;9.714;2023-08-21T07:30:59;24.50;99.90
10249;DHT22;5169;50.560;9.714;2023-08-21T07:33:26;24.60;99.90
10249;DHT22;5169;50.560;9.714;2023-08-21T07:36:00;24.50;99.90
10249;DHT22;5169;50.560;9.714;2023-08-21T07:38:28;24.70;99.90
10249;DHT22;5169;50.560;9.714;2023-08-21T07:41:07;24.60;99.90
10249;DHT22;5169;50.560;9.714;2023-08-21T07:43:33;24.60;99.90
10249;DHT22;5169;50.560;9.714;2023-08-21T07:46:03;24.50;99.90
10249;DHT22;5169;50.560;9.714;2023-08-21T07:48:29;24.70;99.90
10249;DHT22;5169;50.560;9.714;2023-08-21T07:50:57;24.90;99.90
10249;DHT22;5169;50.560;9.714;2023-08-21T07:53:24;24.80;99.90
10249;DHT22;5169;50.560;9.714;2023-08-21T07:55:50;25.00;99.90
10249;DHT22;5169;50.560;9.714;2023-08-21T07:58:20;25.20;99.90
10249;DHT22;5169;50.560;9.714;2023-08-21T08:00:48;25.10;99.90
10249;DHT22;5169;50.560;9.714;2023-08-21T08:03:14;25.10;99.90
10249;DHT22;5169;50.560;9.714;2023-08-21T08:05:43;25.20;99.90
10249;DHT22;5169;50.560;9.714;2023-08-21T08:08:09;25.20;99.90
10249;DHT22;5169;50.560;9.714;2023-08-21T08:10:41;25.30;99.90
10249;DHT22;5169;50.560;9.714;2023-08-21T08:13:07;25.30;99.90
10249;DHT22;5169;50.560;9.714;2023-08-21T08:15:35;25.30;99.90
10249;DHT22;5169;50.560;9.714;2023-08-21T08:18:04;25.50;99.90
10249;DHT22;5169;50.560;9.714;2023-08-21T08:20:30;25.70;99.90
10249;DHT22;5169;50.560;9.714;2023-08-21T08:22:58;25.90;99.90
10249;DHT22;5169;50.560;9.714;2023-08-21T08:25:24;25.80;99.90
10249;DHT22;5169;50.560;9.714;2023-08-21T08:27:51;25.90;99.90
10249;DHT22;5169;50.560;9.714;2023-08-21T08:30:19;26.00;99.90
10249;DHT22;5169;50.560;9.714;2023-08-21T08:32:45;26.20;99.90
10249;DHT22;5169;50.560;9.714;2023-08-21T08:35:14;26.20;99.90
10249;DHT22;5169;50.560;9.714;2023-08-21T08:37:41;25.80;99.90
10249;DHT22;5169;50.560;9.714;2023-08-21T08:40:07;26.00;99.90
10249;DHT22;5169;50.560;9.714;2023-08-21T08:42:34;26.20;99.90
10249;DHT22;5169;50.560;9.714;2023-08-21T08:45:05;26.40;99.90
10249;DHT22;5169;50.560;9.714;2023-08-21T08:47:35;26.60;99.90
10249;DHT22;5169;50.560;9.714;2023-08-21T08:50:05;26.60;99.90
10249;DHT22;5169;50.560;9.714;2023-08-21T08:52:37;26.60;99.90
10249;DHT22;5169;50.560;9.714;2023-08-21T08:55:03;26.40;99.90
10249;DHT22;5169;50.560;9.714;2023-08-21T08:57:32;26.40;99.90
10249;DHT22;5169;50.560;9.714;2023-08-21T08:59:57;26.60;99.90
10249;DHT22;5169;50.560;9.714;2023-08-21T09:02:25;26.70;99.90
10249;DHT22;5169;50.560;9.714;2023-08-21T09:04:53;26.90;99.90
10249;DHT22;5169;50.560;9.714;2023-08-21T09:07:19;27.20;99.90
10249;DHT22;5169;50.560;9.714;2023-08-21T09:09:48;27.30;99.90
10249;DHT22;5169;50.560;9.714;2023-08-21T09:12:18;27.30;99.90
10249;DHT22;5169;50.560;9.714;2023-08-21T09:14:45;27.50;99.90
10249;DHT22;5169;50.560;9.714;2023-08-21T09:17:11;27.60;99.90
10249;DHT22;5169;50.560;9.714;2023-08-21T09:19:37;27.60;99.90
10249;DHT22;5169;50.560;9.714;2023-08-21T09:22:16;27.70;99.90
10249;DHT22;5169;50.560;9.714;2023-08-21T09:25:06;27.80;99.90
10249;DHT22;5169;50.560;9.714;2023-08-21T09:27:39;27.90;99.90
10249;DHT22;5169;50.560;9.714;2023-08-21T09:30:11;28.10;99.90
10249;DHT22;5169;50.560;9.714;2023-08-21T09:32:54;28.20;99.90
10249;DHT22;5169;50.560;9.714;2023-08-21T09:35:23;28.30;99.90
10249;DHT22;5169;50.560;9.714;2023-08-21T09:37:52;28.40;99.90
10249;DHT22;5169;50.560;9.714;2023-08-21T09:40:23;28.60;99.90
10249;DHT22;5169;50.560;9.714;2023-08-21T09:42:53;28.70;99.90
10249;DHT22;5169;50.560;9.714;2023-08-21T09:45:26;28.80;99.90
10249;DHT22;5169;50.560;9.714;2023-08-21T09:47:53;28.90;99.90
10249;DHT22;5169;50.560;9.714;2023-08-21T09:50:19;29.10;99.90
10249;DHT22;5169;50.560;9.714;2023-08-21T09:52:47;29.30;99.90
10249;DHT22;5169;50.560;9.714;2023-08-21T09:55:14;29.40;99.90
10249;DHT22;5169;50.560;9.714;2023-08-21T09:57:42;29.70;99.90
10249;DHT22;5169;50.560;9.714;2023-08-21T10:00:11;29.70;99.90
10249;DHT22;5169;50.560;9.714;2023-08-21T10:02:49;29.90;99.90
10249;DHT22;5169;50.560;9.714;2023-08-21T10:05:18;30.40;99.90
10249;DHT22;5169;50.560;9.714;2023-08-21T10:07:48;30.40;99.20
10249;DHT22;5169;50.560;9.714;2023-08-21T10:10:17;30.70;99.90
10249;DHT22;5169;50.560;9.714;2023-08-21T10:12:45;30.80;99.90
10249;DHT22;5169;50.560;9.714;2023-08-21T10:15:11;30.60;99.20
10249;DHT22;5169;50.560;9.714;2023-08-21T10:17:37;30.80;99.70
10249;DHT22;5169;50.560;9.714;2023-08-21T10:20:07;31.30;98.50
10249;DHT22;5169;50.560;9.714;2023-08-21T10:22:45;31.40;98.70
10249;DHT22;5169;50.560;9.714;2023-08-21T10:25:21;31.30;97.30
10249;DHT22;5169;50.560;9.714;2023-08-21T10:27:55;31.70;97.50
10249;DHT22;5169;50.560;9.714;2023-08-21T10:30:28;31.90;95.90
10249;DHT22;5169;50.560;9.714;2023-08-21T10:32:58;31.90;95.00
10249;DHT22;5169;50.560;9.714;2023-08-21T10:35:33;32.40;95.40
10249;DHT22;5169;50.560;9.714;2023-08-21T10:41:04;33.20;93.30
10249;DHT22;5169;50.560;9.714;2023-08-21T10:43:48;33.80;93.10
10249;DHT22;5169;50.560;9.714;2023-08-21T10:46:15;34.30;91.90
10249;DHT22;5169;50.560;9.714;2023-08-21T10:48:42;34.60;91.60
10249;DHT22;5169;50.560;9.714;2023-08-21T10:51:08;36.60;89.10
10249;DHT22;5169;50.560;9.714;2023-08-21T10:53:34;37.40;82.10
10249;DHT22;5169;50.560;9.714;2023-08-21T10:56:04;37.70;81.60
10249;DHT22;5169;50.560;9.714;2023-08-21T10:58:42;38.70;80.70
10249;DHT22;5169;50.560;9.714;2023-08-21T11:01:07;40.00;71.30
10249;DHT22;5169;50.560;9.714;2023-08-21T11:03:33;40.30;69.40
10249;DHT22;5169;50.560;9.714;2023-08-21T11:06:06;40.60;66.60
10249;DHT22;5169;50.560;9.714;2023-08-21T11:08:35;42.20;59.90
10249;DHT22;5169;50.560;9.714;2023-08-21T11:11:02;42.00;57.00
10249;DHT22;5169;50.560;9.714;2023-08-21T11:13:28;40.70;58.00
10249;DHT22;5169;50.560;9.714;2023-08-21T11:16:02;41.00;58.60
10249;DHT22;5169;50.560;9.714;2023-08-21T11:18:38;42.00;57.60
10249;DHT22;5169;50.560;9.714;2023-08-21T11:21:08;43.50;55.90
10249;DHT22;5169;50.560;9.714;2023-08-21T11:23:41;44.10;53.20
10249;DHT22;5169;50.560;9.714;2023-08-21T11:26:10;44.60;51.50
10249;DHT22;5169;50.560;9.714;2023-08-21T11:28:36;45.20;49.60
10249;DHT22;5169;50.560;9.714;2023-08-21T11:31:04;45.20;48.60
10249;DHT22;5169;50.560;9.714;2023-08-21T11:33:31;46.00;47.00
10249;DHT22;5169;50.560;9.714;2023-08-21T11:35:57;44.00;48.20
10249;DHT22;5169;50.560;9.714;2023-08-21T11:38:25;42.90;51.30
10249;DHT22;5169;50.560;9.714;2023-08-21T11:40:58;42.70;51.30
10249;DHT22;5169;50.560;9.714;2023-08-21T11:43:38;43.30;50.50
10249;DHT22;5169;50.560;9.714;2023-08-21T11:46:08;44.30;49.00
10249;DHT22;5169;50.560;9.714;2023-08-21T11:48:39;45.10;47.20
10249;DHT22;5169;50.560;9.714;2023-08-21T11:51:08;42.60;50.10
10249;DHT22;5169;50.560;9.714;2023-08-21T11:55:59;40.40;53.90
10249;DHT22;5169;50.560;9.714;2023-08-21T11:58:32;38.80;55.80
10249;DHT22;5169;50.560;9.714;2023-08-21T12:01:06;38.00;56.70
10249;DHT22;5169;50.560;9.714;2023-08-21T12:03:39;36.60;59.20
10249;DHT22;5169;50.560;9.714;2023-08-21T12:06:09;35.40;65.40
10249;DHT22;5169;50.560;9.714;2023-08-21T12:08:35;34.90;68.80
10249;DHT22;5169;50.560;9.714;2023-08-21T12:11:01;33.70;69.40
10249;DHT22;5169;50.560;9.714;2023-08-21T12:13:33;33.40;72.00
10249;DHT22;5169;50.560;9.714;2023-08-21T12:16:01;33.10;73.60
10249;DHT22;5169;50.560;9.714;2023-08-21T12:18:28;33.50;72.70
10249;DHT22;5169;50.560;9.714;2023-08-21T12:20:54;32.80;70.80
10249;DHT22;5169;50.560;9.714;2023-08-21T12:23:19;32.10;73.90
10249;DHT22;5169;50.560;9.714;2023-08-21T12:25:45;31.80;74.80
10249;DHT22;5169;50.560;9.714;2023-08-21T12:28:11;31.90;77.90
10249;DHT22;5169;50.560;9.714;2023-08-21T12:30:37;31.90;76.60
10249;DHT22;5169;50.560;9.714;2023-08-21T12:33:03;31.50;77.00
10249;DHT22;5169;50.560;9.714;2023-08-21T12:35:31;31.10;78.40
10249;DHT22;5169;50.560;9.714;2023-08-21T12:37:57;31.20;80.40
10249;DHT22;5169;50.560;9.714;2023-08-21T12:40:23;32.50;76.80
10249;DHT22;5169;50.560;9.714;2023-08-21T12:42:49;34.60;73.60
10249;DHT22;5169;50.560;9.714;2023-08-21T12:45:16;35.60;72.00
10249;DHT22;5169;50.560;9.714;2023-08-21T12:47:41;36.30;67.50
10249;DHT22;5169;50.560;9.714;2023-08-21T12:50:08;36.40;65.90
10249;DHT22;5169;50.560;9.714;2023-08-21T12:52:36;35.90;67.10
10249;DHT22;5169;50.560;9.714;2023-08-21T12:55:02;35.50;69.90
10249;DHT22;5169;50.560;9.714;2023-08-21T12:57:31;34.60;71.40
10249;DHT22;5169;50.560;9.714;2023-08-21T12:59:56;34.40;72.40
10249;DHT22;5169;50.560;9.714;2023-08-21T13:02:22;34.40;72.70
10249;DHT22;5169;50.560;9.714;2023-08-21T13:04:49;34.40;70.60
10249;DHT22;5169;50.560;9.714;2023-08-21T13:07:14;34.00;70.30
10249;DHT22;5169;50.560;9.714;2023-08-21T13:09:40;34.00;73.00
10249;DHT22;5169;50.560;9.714;2023-08-21T13:12:05;34.00;72.40
10249;DHT22;5169;50.560;9.714;2023-08-21T13:14:31;34.00;74.70
10249;DHT22;5169;50.560;9.714;2023-08-21T13:16:57;33.90;72.70
10249;DHT22;5169;50.560;9.714;2023-08-21T13:19:22;33.90;72.30
10249;DHT22;5169;50.560;9.714;2023-08-21T13:21:50;33.70;71.20
10249;DHT22;5169;50.560;9.714;2023-08-21T13:24:16;33.40;75.10
10249;DHT22;5169;50.560;9.714;2023-08-21T13:26:42;33.10;72.60
10249;DHT22;5169;50.560;9.714;2023-08-21T13:29:09;33.00;74.30
10249;DHT22;5169;50.560;9.714;2023-08-21T13:31:35;33.00;73.30
10249;DHT22;5169;50.560;9.714;2023-08-21T13:34:01;33.10;76.20
10249;DHT22;5169;50.560;9.714;2023-08-21T13:36:26;33.00;72.80
10249;DHT22;5169;50.560;9.714;2023-08-21T13:38:55;32.90;75.20
10249;DHT22;5169;50.560;9.714;2023-08-21T13:41:23;32.90;74.10
10249;DHT22;5169;50.560;9.714;2023-08-21T13:43:50;32.70;73.20
10249;DHT22;5169;50.560;9.714;2023-08-21T13:46:16;32.60;74.60
10249;DHT22;5169;50.560;9.714;2023-08-21T13:48:41;32.50;76.60
10249;DHT22;5169;50.560;9.714;2023-08-21T13:51:08;32.40;75.50
10249;DHT22;5169;50.560;9.714;2023-08-21T13:53:34;32.40;77.80
10249;DHT22;5169;50.560;9.714;2023-08-21T13:55:59;32.40;78.20
10249;DHT22;5169;50.560;9.714;2023-08-21T13:58:25;32.20;78.50
10249;DHT22;5169;50.560;9.714;2023-08-21T14:00:53;32.10;80.10
10249;DHT22;5169;50.560;9.714;2023-08-21T14:03:21;32.20;78.70
10249;DHT22;5169;50.560;9.714;2023-08-21T14:05:46;32.50;76.80
10249;DHT22;5169;50.560;9.714;2023-08-21T14:08:12;32.50;76.70
10249;DHT22;5169;50.560;9.714;2023-08-21T14:10:40;32.50;76.90
10249;DHT22;5169;50.560;9.714;2023-08-21T14:13:05;32.50;71.80
10249;DHT22;5169;50.560;9.714;2023-08-21T14:15:33;32.40;72.00
10249;DHT22;5169;50.560;9.714;2023-08-21T14:18:01;32.20;71.10
10249;DHT22;5169;50.560;9.714;2023-08-21T14:20:30;32.20;72.80
10249;DHT22;5169;50.560;9.714;2023-08-21T14:22:58;32.20;71.50
10249;DHT22;5169;50.560;9.714;2023-08-21T14:25:24;32.20;73.30
10249;DHT22;5169;50.560;9.714;2023-08-21T14:27:51;32.10;72.50
10249;DHT22;5169;50.560;9.714;2023-08-21T14:30:20;31.90;72.20
10249;DHT22;5169;50.560;9.714;2023-08-21T14:32:45;31.60;71.60
10249;DHT22;5169;50.560;9.714;2023-08-21T14:35:11;31.50;73.30
10249;DHT22;5169;50.560;9.714;2023-08-21T14:37:37;31.60;72.90
10249;DHT22;5169;50.560;9.714;2023-08-21T14:40:04;31.60;72.50
10249;DHT22;5169;50.560;9.714;2023-08-21T14:42:33;31.60;71.90
10249;DHT22;5169;50.560;9.714;2023-08-21T14:44:59;31.40;74.20
10249;DHT22;5169;50.560;9.714;2023-08-21T14:47:25;31.40;71.90
10249;DHT22;5169;50.560;9.714;2023-08-21T14:49:50;31.40;73.30
10249;DHT22;5169;50.560;9.714;2023-08-21T14:52:16;31.40;73.50
10249;DHT22;5169;50.560;9.714;2023-08-21T14:54:42;31.30;72.00
10249;DHT22;5169;50.560;9.714;2023-08-21T14:57:08;31.10;73.70
10249;DHT22;5169;50.560;9.714;2023-08-21T14:59:34;31.20;74.70
10249;DHT22;5169;50.560;9.714;2023-08-21T15:01:59;31.30;75.70
10249;DHT22;5169;50.560;9.714;2023-08-21T15:04:25;31.40;75.20
10249;DHT22;5169;50.560;9.714;2023-08-21T15:06:53;31.30;75.60
10249;DHT22;5169;50.560;9.714;2023-08-21T15:09:18;31.20;75.40
10249;DHT22;5169;50.560;9.714;2023-08-21T15:11:44;31.20;76.50
10249;DHT22;5169;50.560;9.714;2023-08-21T15:14:11;31.10;73.90
10249;DHT22;5169;50.560;9.714;2023-08-21T15:16:37;31.00;73.20
10249;DHT22;5169;50.560;9.714;2023-08-21T15:19:05;31.00;72.30
10249;DHT22;5169;50.560;9.714;2023-08-21T15:21:33;31.00;73.40
10249;DHT22;5169;50.560;9.714;2023-08-21T15:23:59;31.00;73.30
10249;DHT22;5169;50.560;9.714;2023-08-21T15:26:25;31.00;72.80
10249;DHT22;5169;50.560;9.714;2023-08-21T15:28:51;31.00;72.70
10249;DHT22;5169;50.560;9.714;2023-08-21T15:31:16;30.80;72.20
10249;DHT22;5169;50.560;9.714;2023-08-21T15:33:42;30.90;74.00
10249;DHT22;5169;50.560;9.714;2023-08-21T15:36:07;30.90;73.90
10249;DHT22;5169;50.560;9.714;2023-08-21T15:38:37;30.80;74.50
10249;DHT22;5169;50.560;9.714;2023-08-21T15:41:03;30.70;74.60
10249;DHT22;5169;50.560;9.714;2023-08-21T15:43:33;30.70;75.70
10249;DHT22;5169;50.560;9.714;2023-08-21T15:45:59;30.60;75.50
10249;DHT22;5169;50.560;9.714;2023-08-21T15:48:26;30.50;76.90
10249;DHT22;5169;50.560;9.714;2023-08-21T15:50:54;30.40;75.80
10249;DHT22;5169;50.560;9.714;2023-08-21T15:53:22;30.50;76.50
10249;DHT22;5169;50.560;9.714;2023-08-21T15:55:48;30.60;76.90